sensor_id;sensor_type;location;lat;lon;timestamp;temperature;humidity
22008;DHT22;11168;56.976;24.168;2024-03-08T00:00:12;-0.50;99.90
22008;DHT22;11168;56.976;24.168;2024-03-08T00:02:42;-0.50;99.90
22008;DHT22;11168;56.976;24.168;2024-03-08T00:05:10;-0.40;99.90
22008;DHT22;11168;56.976;24.168;2024-03-08T00:07:41;-0.40;99.90
22008;DHT22;11168;56.976;24.168;2024-03-08T00:10:09;-0.50;99.90
22008;DHT22;11168;56.976;24.168;2024-03-08T00:12:45;-0.50;99.90
22008;DHT22;11168;56.976;24.168;2024-03-08T00:15:15;-0.50;99.90
22008;DHT22;11168;56.976;24.168;2024-03-08T00:17:44;-0.50;99.90
22008;DHT22;11168;56.976;24.168;2024-03-08T00:20:12;-0.60;99.90
22008;DHT22;11168;56.976;24.168;2024-03-08T00:22:41;-0.50;99.90
22008;DHT22;11168;56.976;24.168;2024-03-08T00:25:09;-0.60;99.90
22008;DHT22;11168;56.976;24.168;2024-03-08T00:27:38;-0.60;99.90
22008;DHT22;11168;56.976;24.168;2024-03-08T00:30:06;-0.60;99.90
22008;DHT22;11168;56.976;24.168;2024-03-08T00:32:33;-0.60;99.90
22008;DHT22;11168;56.976;24.168;2024-03-08T00:35:04;-0.50;99.90
22008;DHT22;11168;56.976;24.168;2024-03-08T00:37:34;-0.50;99.90
22008;DHT22;11168;56.976;24.168;2024-03-08T00:40:01;-0.50;99.90
22008;DHT22;11168;56.976;24.168;2024-03-08T00:42:29;-0.50;99.90
22008;DHT22;11168;56.976;24.168;2024-03-08T00:44:56;-0.50;99.90
22008;DHT22;11168;56.976;24.168;2024-03-08T00:47:25;-0.50;99.90
22008;DHT22;11168;56.976;24.168;2024-03-08T00:49:53;-0.50;99.90
22008;DHT22;11168;56.976;24.168;2024-03-08T00:52:20;-0.50;99.90
22008;DHT22;11168;56.976;24.168;2024-03-08T00:54:47;-0.50;99.90
22008;DHT22;11168;56.976;24.168;2024-03-08T00:57:14;-0.50;99.90
22008;DHT22;11168;56.976;24.168;2024-03-08T00:59:41;-0.60;99.90
22008;DHT22;11168;56.976;24.168;2024-03-08T01:02:08;-0.60;99.90
22008;DHT22;11168;56.976;24.168;2024-03-08T01:04:38;-0.60;99.90
22008;DHT22;11168;56.976;24.168;2024-03-08T01:07:05;-0.50;99.90
22008;DHT22;11168;56.976;24.168;2024-03-08T01:09:32;-0.50;99.90
22008;DHT22;11168;56.976;24.168;2024-03-08T01:11:59;-0.60;99.90
22008;DHT22;11168;56.976;24.168;2024-03-08T01:14:28;-0.60;99.90
22008;DHT22;11168;56.976;24.168;2024-03-08T01:16:58;-0.60;99.90
22008;DHT22;11168;56.976;24.168;2024-03-08T01:19:25;-0.60;99.90
22008;DHT22;11168;56.976;24.168;2024-03-08T01:21:52;-0.70;99.90
22008;DHT22;11168;56.976;24.168;2024-03-08T01:24:22;-0.70;99.90
22008;DHT22;11168;56.976;24.168;2024-03-08T01:26:49;-0.70;99.90
22008;DHT22;11168;56.976;24.168;2024-03-08T01:29:17;-0.70;99.90
22008;DHT22;11168;56.976;24.168;2024-03-08T01:31:44;-0.80;99.90
22008;DHT22;11168;56.976;24.168;2024-03-08T01:34:11;-0.80;99.90
22008;DHT22;11168;56.976;24.168;2024-03-08T01:36:38;-0.80;99.90
22008;DHT22;11168;56.976;24.168;2024-03-08T01:39:05;-0.90;99.90
22008;DHT22;11168;56.976;24.168;2024-03-08T01:41:35;-0.90;99.90
22008;DHT22;11168;56.976;24.168;2024-03-08T01:44:03;-0.90;99.90
22008;DHT22;11168;56.976;24.168;2024-03-08T01:46:31;-0.90;99.90
22008;DHT22;11168;56.976;24.168;2024-03-08T01:49:01;-0.90;99.90
22008;DHT22;11168;56.976;24.168;2024-03-08T01:51:30;-0.90;99.90
22008;DHT22;11168;56.976;24.168;2024-03-08T01:53:58;-1.00;99.90
22008;DHT22;11168;56.976;24.168;2024-03-08T01:56:26;-1.00;99.90
22008;DHT22;11168;56.976;24.168;2024-03-08T01:58:54;-1.00;99.90
22008;DHT22;11168;56.976;24.168;2024-03-08T02:01:21;-1.00;99.90
22008;DHT22;11168;56.976;24.168;2024-03-08T02:03:49;-1.00;99.90
22008;DHT22;11168;56.976;24.168;2024-03-08T02:06:16;-1.00;99.90
22008;DHT22;11168;56.976;24.168;2024-03-08T02:08:45;-1.00;99.90
22008;DHT22;11168;56.976;24.168;2024-03-08T02:11:13;-1.00;99.90
22008;DHT22;11168;56.976;24.168;2024-03-08T02:13:41;-1.00;99.90
22008;DHT22;11168;56.976;24.168;2024-03-08T02:16:08;-1.00;99.90
22008;DHT22;11168;56.976;24.168;2024-03-08T02:18:36;-1.00;99.90
22008;DHT22;11168;56.976;24.168;2024-03-08T02:21:05;-1.00;99.90
22008;DHT22;11168;56.976;24.168;2024-03-08T02:23:34;-1.10;99.90
22008;DHT22;11168;56.976;24.168;2024-03-08T02:26:01;-1.10;99.90
22008;DHT22;11168;56.976;24.168;2024-03-08T02:28:28;-1.10;99.90
22008;DHT22;11168;56.976;24.168;2024-03-08T02:30:56;-1.10;99.90
22008;DHT22;11168;56.976;24.168;2024-03-08T02:33:27;-1.10;99.90
22008;DHT22;11168;56.976;24.168;2024-03-08T02:35:55;-1.10;99.90
22008;DHT22;11168;56.976;24.168;2024-03-08T02:38:25;-1.10;99.90
22008;DHT22;11168;56.976;24.168;2024-03-08T02:40:53;-1.00;99.90
22008;DHT22;11168;56.976;24.168;2024-03-08T02:43:22;-1.00;99.90
22008;DHT22;11168;56.976;24.168;2024-03-08T02:45:50;-1.00;99.90
22008;DHT22;11168;56.976;24.168;2024-03-08T02:48:17;-1.00;99.90
22008;DHT22;11168;56.976;24.168;2024-03-08T02:50:45;-1.10;99.90
22008;DHT22;11168;56.976;24.168;2024-03-08T02:53:13;-1.10;99.90
22008;DHT22;11168;56.976;24.168;2024-03-08T02:55:42;-1.00;99.90
22008;DHT22;11168;56.976;24.168;2024-03-08T02:58:11;-1.00;99.90
22008;DHT22;11168;56.976;24.168;2024-03-08T03:00:38;-1.10;99.90
22008;DHT22;11168;56.976;24.168;2024-03-08T03:03:07;-1.10;99.90
22008;DHT22;11168;56.976;24.168;2024-03-08T03:05:35;-1.00;99.90
22008;DHT22;11168;56.976;24.168;2024-03-08T03:08:02;-1.10;99.90
22008;DHT22;11168;56.976;24.168;2024-03-08T03:10:36;-1.10;99.90
22008;DHT22;11168;56.976;24.168;2024-03-08T03:13:04;-1.00;99.90
22008;DHT22;11168;56.976;24.168;2024-03-08T03:15:35;-1.00;99.90
22008;DHT22;11168;56.976;24.168;2024-03-08T03:18:04;-1.00;99.90
22008;DHT22;11168;56.976;24.168;2024-03-08T03:20:35;-1.00;99.90
22008;DHT22;11168;56.976;24.168;2024-03-08T03:23:11;-1.00;99.90
22008;DHT22;11168;56.976;24.168;2024-03-08T03:25:42;-1.00;99.90
22008;DHT22;11168;56.976;24.168;2024-03-08T03:28:09;-1.00;99.90
22008;DHT22;11168;56.976;24.168;2024-03-08T03:30:41;-1.00;99.90
22008;DHT22;11168;56.976;24.168;2024-03-08T03:33:09;-0.90;99.90
22008;DHT22;11168;56.976;24.168;2024-03-08T03:35:39;-0.90;99.90
22008;DHT22;11168;56.976;24.168;2024-03-08T03:38:09;-0.90;99.90
22008;DHT22;11168;56.976;24.168;2024-03-08T03:40:39;-0.90;99.90
22008;DHT22;11168;56.976;24.168;2024-03-08T03:43:07;-0.90;99.90
22008;DHT22;11168;56.976;24.168;2024-03-08T03:45:39;-0.90;99.90
22008;DHT22;11168;56.976;24.168;2024-03-08T03:48:09;-0.90;99.90
22008;DHT22;11168;56.976;24.168;2024-03-08T03:50:38;-0.90;99.90
22008;DHT22;11168;56.976;24.168;2024-03-08T03:53:06;-0.90;99.90
22008;DHT22;11168;56.976;24.168;2024-03-08T03:55:38;-0.90;99.90
22008;DHT22;11168;56.976;24.168;2024-03-08T03:58:08;-0.90;99.90
22008;DHT22;11168;56.976;24.168;2024-03-08T04:00:37;-0.90;99.90
22008;DHT22;11168;56.976;24.168;2024-03-08T04:03:04;-0.90;99.90
22008;DHT22;11168;56.976;24.168;2024-03-08T04:05:32;-1.00;99.90
22008;DHT22;11168;56.976;24.168;2024-03-08T04:07:59;-1.00;99.90
22008;DHT22;11168;56.976;24.168;2024-03-08T04:10:26;-0.90;99.90
22008;DHT22;11168;56.976;24.168;2024-03-08T04:12:53;-0.90;99.90
22008;DHT22;11168;56.976;24.168;2024-03-08T04:15:20;-0.90;99.90
22008;DHT22;11168;56.976;24.168;2024-03-08T04:17:47;-0.90;99.90
22008;DHT22;11168;56.976;24.168;2024-03-08T04:20:14;-0.90;99.90
22008;DHT22;11168;56.976;24.168;2024-03-08T04:22:42;-0.90;99.90
22008;DHT22;11168;56.976;24.168;2024-03-08T04:25:13;-0.90;99.90
22008;DHT22;11168;56.976;24.168;2024-03-08T04:27:41;-0.90;99.90
22008;DHT22;11168;56.976;24.168;2024-03-08T04:30:08;-0.90;99.90
22008;DHT22;11168;56.976;24.168;2024-03-08T04:32:36;-0.90;99.90
22008;DHT22;11168;56.976;24.168;2024-03-08T04:35:03;-0.90;99.90
22008;DHT22;11168;56.976;24.168;2024-03-08T04:37:31;-0.90;99.90
22008;DHT22;11168;56.976;24.168;2024-03-08T04:40:00;-0.90;99.90
22008;DHT22;11168;56.976;24.168;2024-03-08T04:42:28;-0.90;99.90
22008;DHT22;11168;56.976;24.168;2024-03-08T04:44:56;-0.90;99.90
22008;DHT22;11168;56.976;24.168;2024-03-08T04:47:24;-0.90;99.90
22008;DHT22;11168;56.976;24.168;2024-03-08T04:49:52;-0.90;99.90
22008;DHT22;11168;56.976;24.168;2024-03-08T04:52:20;-1.00;99.90
22008;DHT22;11168;56.976;24.168;2024-03-08T04:54:49;-0.90;99.90
22008;DHT22;11168;56.976;24.168;2024-03-08T04:57:17;-0.90;99.90
22008;DHT22;11168;56.976;24.168;2024-03-08T04:59:47;-0.90;99.90
22008;DHT22;11168;56.976;24.168;2024-03-08T05:02:15;-0.90;99.90
22008;DHT22;11168;56.976;24.168;2024-03-08T05:04:42;-0.90;99.90
22008;DHT22;11168;56.976;24.168;2024-03-08T05:07:09;-0.80;99.90
22008;DHT22;11168;56.976;24.168;2024-03-08T05:09:37;-0.90;99.90
22008;DHT22;11168;56.976;24.168;2024-03-08T05:12:05;-0.80;99.90
22008;DHT22;11168;56.976;24.168;2024-03-08T05:14:32;-0.90;99.90
22008;DHT22;11168;56.976;24.168;2024-03-08T05:16:59;-0.80;99.90
22008;DHT22;11168;56.976;24.168;2024-03-08T05:19:27;-0.80;99.90
22008;DHT22;11168;56.976;24.168;2024-03-08T05:22:03;-0.80;99.90
22008;DHT22;11168;56.976;24.168;2024-03-08T05:24:30;-0.80;99.90
22008;DHT22;11168;56.976;24.168;2024-03-08T05:26:57;-0.70;99.90
22008;DHT22;11168;56.976;24.168;2024-03-08T05:29:50;-0.70;99.90
22008;DHT22;11168;56.976;24.168;2024-03-08T05:32:17;-0.80;99.90
22008;DHT22;11168;56.976;24.168;2024-03-08T05:34:44;-0.80;99.90
22008;DHT22;11168;56.976;24.168;2024-03-08T05:37:11;-0.80;99.90
22008;DHT22;11168;56.976;24.168;2024-03-08T05:39:38;-0.80;99.90
22008;DHT22;11168;56.976;24.168;2024-03-08T05:42:05;-0.90;99.90
22008;DHT22;11168;56.976;24.168;2024-03-08T05:44:36;-0.80;99.90
22008;DHT22;11168;56.976;24.168;2024-03-08T05:47:03;-0.70;99.90
22008;DHT22;11168;56.976;24.168;2024-03-08T05:49:30;-0.80;99.90
22008;DHT22;11168;56.976;24.168;2024-03-08T05:52:00;-0.90;99.90
22008;DHT22;11168;56.976;24.168;2024-03-08T05:54:30;-0.90;99.90
22008;DHT22;11168;56.976;24.168;2024-03-08T05:56:59;-0.90;99.90
22008;DHT22;11168;56.976;24.168;2024-03-08T05:59:27;-0.90;99.90
22008;DHT22;11168;56.976;24.168;2024-03-08T06:01:54;-0.90;99.90
22008;DHT22;11168;56.976;24.168;2024-03-08T06:04:21;-0.90;99.90
22008;DHT22;11168;56.976;24.168;2024-03-08T06:06:50;-0.80;99.90
22008;DHT22;11168;56.976;24.168;2024-03-08T06:09:18;-0.90;99.90
22008;DHT22;11168;56.976;24.168;2024-03-08T06:11:54;-0.80;99.90
22008;DHT22;11168;56.976;24.168;2024-03-08T06:14:21;-0.90;99.90
22008;DHT22;11168;56.976;24.168;2024-03-08T06:16:50;-0.80;99.90
22008;DHT22;11168;56.976;24.168;2024-03-08T06:19:17;-0.80;99.90
22008;DHT22;11168;56.976;24.168;2024-03-08T06:21:45;-0.90;99.90
22008;DHT22;11168;56.976;24.168;2024-03-08T06:24:12;-0.90;99.90
22008;DHT22;11168;56.976;24.168;2024-03-08T06:26:39;-0.90;99.90
22008;DHT22;11168;56.976;24.168;2024-03-08T06:29:08;-0.80;99.90
22008;DHT22;11168;56.976;24.168;2024-03-08T06:31:35;-0.80;99.90
22008;DHT22;11168;56.976;24.168;2024-03-08T06:34:06;-0.80;99.90
22008;DHT22;11168;56.976;24.168;2024-03-08T06:36:35;-0.80;99.90
22008;DHT22;11168;56.976;24.168;2024-03-08T06:39:07;-0.70;99.90
22008;DHT22;11168;56.976;24.168;2024-03-08T06:41:37;-0.70;99.90
22008;DHT22;11168;56.976;24.168;2024-03-08T06:44:05;-0.70;99.90
22008;DHT22;11168;56.976;24.168;2024-03-08T06:46:32;-0.70;99.90
22008;DHT22;11168;56.976;24.168;2024-03-08T06:49:00;-0.70;99.90
22008;DHT22;11168;56.976;24.168;2024-03-08T06:51:28;-0.70;99.90
22008;DHT22;11168;56.976;24.168;2024-03-08T06:53:55;-0.60;99.90
22008;DHT22;11168;56.976;24.168;2024-03-08T06:56:22;-0.60;99.90
22008;DHT22;11168;56.976;24.168;2024-03-08T06:58:49;-0.50;99.90
22008;DHT22;11168;56.976;24.168;2024-03-08T07:01:17;-0.60;99.90
22008;DHT22;11168;56.976;24.168;2024-03-08T07:03:44;-0.60;99.90
22008;DHT22;11168;56.976;24.168;2024-03-08T07:06:11;-0.60;99.90
22008;DHT22;11168;56.976;24.168;2024-03-08T07:08:39;-0.60;99.90
22008;DHT22;11168;56.976;24.168;2024-03-08T07:11:06;-0.50;99.90
22008;DHT22;11168;56.976;24.168;2024-03-08T07:13:35;-0.50;99.90
22008;DHT22;11168;56.976;24.168;2024-03-08T07:16:02;-0.50;99.90
22008;DHT22;11168;56.976;24.168;2024-03-08T07:18:29;-0.40;99.90
22008;DHT22;11168;56.976;24.168;2024-03-08T07:20:57;-0.40;99.90
22008;DHT22;11168;56.976;24.168;2024-03-08T07:23:25;-0.30;99.90
22008;DHT22;11168;56.976;24.168;2024-03-08T07:26:10;-0.30;99.90
22008;DHT22;11168;56.976;24.168;2024-03-08T07:28:37;-0.20;99.90
22008;DHT22;11168;56.976;24.168;2024-03-08T07:31:05;-0.20;99.90
22008;DHT22;11168;56.976;24.168;2024-03-08T07:33:44;-0.20;99.90
22008;DHT22;11168;56.976;24.168;2024-03-08T07:36:11;-0.20;99.90
22008;DHT22;11168;56.976;24.168;2024-03-08T07:38:39;-0.20;99.90
22008;DHT22;11168;56.976;24.168;2024-03-08T07:41:06;-0.20;99.90
22008;DHT22;11168;56.976;24.168;2024-03-08T07:43:33;-0.10;99.90
22008;DHT22;11168;56.976;24.168;2024-03-08T07:46:00;0.00;99.90
22008;DHT22;11168;56.976;24.168;2024-03-08T07:48:27;0.00;99.90
22008;DHT22;11168;56.976;24.168;2024-03-08T07:50:55;0.10;99.90
22008;DHT22;11168;56.976;24.168;2024-03-08T07:53:23;0.10;99.90
22008;DHT22;11168;56.976;24.168;2024-03-08T07:55:54;0.10;99.90
22008;DHT22;11168;56.976;24.168;2024-03-08T07:58:21;0.10;99.90
22008;DHT22;11168;56.976;24.168;2024-03-08T08:00:48;0.20;99.90
22008;DHT22;11168;56.976;24.168;2024-03-08T08:03:16;0.20;99.90
22008;DHT22;11168;56.976;24.168;2024-03-08T08:05:45;0.20;99.90
22008;DHT22;11168;56.976;24.168;2024-03-08T08:08:13;0.10;99.90
22008;DHT22;11168;56.976;24.168;2024-03-08T08:10:40;0.10;99.90
22008;DHT22;11168;56.976;24.168;2024-03-08T08:13:09;0.00;99.90
22008;DHT22;11168;56.976;24.168;2024-03-08T08:15:36;0.10;99.90
22008;DHT22;11168;56.976;24.168;2024-03-08T08:18:03;0.20;99.90
22008;DHT22;11168;56.976;24.168;2024-03-08T08:20:33;0.10;99.90
22008;DHT22;11168;56.976;24.168;2024-03-08T08:23:01;0.20;99.90
22008;DHT22;11168;56.976;24.168;2024-03-08T08:25:29;0.20;99.90
22008;DHT22;11168;56.976;24.168;2024-03-08T08:27:56;0.30;99.90
22008;DHT22;11168;56.976;24.168;2024-03-08T08:30:23;0.30;99.90
22008;DHT22;11168;56.976;24.168;2024-03-08T08:32:50;0.30;99.90
22008;DHT22;11168;56.976;24.168;2024-03-08T08:35:18;0.40;99.90
22008;DHT22;11168;56.976;24.168;2024-03-08T08:37:46;0.40;99.90
22008;DHT22;11168;56.976;24.168;2024-03-08T08:40:14;0.40;99.90
22008;DHT22;11168;56.976;24.168;2024-03-08T08:42:42;0.30;99.90
22008;DHT22;11168;56.976;24.168;2024-03-08T08:45:10;0.40;99.90
22008;DHT22;11168;56.976;24.168;2024-03-08T08:47:47;0.40;99.90
22008;DHT22;11168;56.976;24.168;2024-03-08T08:50:17;0.40;99.90
22008;DHT22;11168;56.976;24.168;2024-03-08T08:52:51;0.40;99.90
22008;DHT22;11168;56.976;24.168;2024-03-08T08:55:20;0.40;99.90
22008;DHT22;11168;56.976;24.168;2024-03-08T08:57:49;0.50;99.90
22008;DHT22;11168;56.976;24.168;2024-03-08T09:00:20;0.50;99.90
22008;DHT22;11168;56.976;24.168;2024-03-08T09:02:48;0.50;99.90
22008;DHT22;11168;56.976;24.168;2024-03-08T09:05:15;0.50;99.90
22008;DHT22;11168;56.976;24.168;2024-03-08T09:07:44;0.50;99.90
22008;DHT22;11168;56.976;24.168;2024-03-08T09:10:14;0.40;99.90
22008;DHT22;11168;56.976;24.168;2024-03-08T09:12:44;0.40;99.90
22008;DHT22;11168;56.976;24.168;2024-03-08T09:15:11;0.40;99.90
22008;DHT22;11168;56.976;24.168;2024-03-08T09:17:40;0.40;99.90
22008;DHT22;11168;56.976;24.168;2024-03-08T09:20:08;0.40;99.90
22008;DHT22;11168;56.976;24.168;2024-03-08T09:22:37;0.50;99.90
22008;DHT22;11168;56.976;24.168;2024-03-08T09:25:05;0.50;99.90
22008;DHT22;11168;56.976;24.168;2024-03-08T09:27:32;0.50;99.90
22008;DHT22;11168;56.976;24.168;2024-03-08T09:30:07;0.50;99.90
22008;DHT22;11168;56.976;24.168;2024-03-08T09:32:35;0.50;99.90
22008;DHT22;11168;56.976;24.168;2024-03-08T09:35:04;0.50;99.90
22008;DHT22;11168;56.976;24.168;2024-03-08T09:37:35;0.50;99.90
22008;DHT22;11168;56.976;24.168;2024-03-08T09:40:03;0.50;99.90
22008;DHT22;11168;56.976;24.168;2024-03-08T09:42:37;0.40;99.90
22008;DHT22;11168;56.976;24.168;2024-03-08T09:45:09;0.40;99.90
22008;DHT22;11168;56.976;24.168;2024-03-08T09:47:43;0.40;99.90
22008;DHT22;11168;56.976;24.168;2024-03-08T09:50:11;0.40;99.90
22008;DHT22;11168;56.976;24.168;2024-03-08T09:52:40;0.40;99.90
22008;DHT22;11168;56.976;24.168;2024-03-08T09:55:11;0.40;99.90
22008;DHT22;11168;56.976;24.168;2024-03-08T09:57:41;0.40;99.90
22008;DHT22;11168;56.976;24.168;2024-03-08T10:00:20;0.40;99.90
22008;DHT22;11168;56.976;24.168;2024-03-08T10:02:51;0.40;99.90
22008;DHT22;11168;56.976;24.168;2024-03-08T10:05:22;0.30;99.90
22008;DHT22;11168;56.976;24.168;2024-03-08T10:07:50;0.40;99.90
22008;DHT22;11168;56.976;24.168;2024-03-08T10:10:17;0.30;99.90
22008;DHT22;11168;56.976;24.168;2024-03-08T10:12:45;0.30;99.90
22008;DHT22;11168;56.976;24.168;2024-03-08T10:15:12;0.30;99.90
22008;DHT22;11168;56.976;24.168;2024-03-08T10:17:39;0.30;99.90
22008;DHT22;11168;56.976;24.168;2024-03-08T10:20:18;0.40;99.90
22008;DHT22;11168;56.976;24.168;2024-03-08T10:22:46;0.30;99.90
22008;DHT22;11168;56.976;24.168;2024-03-08T10:25:32;0.40;99.90
22008;DHT22;11168;56.976;24.168;2024-03-08T10:28:02;0.30;99.90
22008;DHT22;11168;56.976;24.168;2024-03-08T10:30:31;0.30;99.90
22008;DHT22;11168;56.976;24.168;2024-03-08T10:32:59;0.30;99.90
22008;DHT22;11168;56.976;24.168;2024-03-08T10:35:29;0.20;99.90
22008;DHT22;11168;56.976;24.168;2024-03-08T10:37:57;0.20;99.90
22008;DHT22;11168;56.976;24.168;2024-03-08T10:40:28;0.20;99.90
22008;DHT22;11168;56.976;24.168;2024-03-08T10:42:58;0.10;99.90
22008;DHT22;11168;56.976;24.168;2024-03-08T10:45:36;0.10;99.90
22008;DHT22;11168;56.976;24.168;2024-03-08T10:48:32;0.00;99.90
22008;DHT22;11168;56.976;24.168;2024-03-08T10:51:05;0.00;99.90
22008;DHT22;11168;56.976;24.168;2024-03-08T10:53:34;0.10;99.90
22008;DHT22;11168;56.976;24.168;2024-03-08T10:56:04;0.00;99.90
22008;DHT22;11168;56.976;24.168;2024-03-08T10:58:36;0.00;99.90
22008;DHT22;11168;56.976;24.168;2024-03-08T11:01:04;0.00;99.90
22008;DHT22;11168;56.976;24.168;2024-03-08T11:08:44;0.00;99.90
22008;DHT22;11168;56.976;24.168;2024-03-08T11:11:40;0.00;99.90
22008;DHT22;11168;56.976;24.168;2024-03-08T11:14:42;0.10;99.90
22008;DHT22;11168;56.976;24.168;2024-03-08T11:17:10;0.10;99.90
22008;DHT22;11168;56.976;24.168;2024-03-08T11:19:38;0.20;99.90
22008;DHT22;11168;56.976;24.168;2024-03-08T11:22:20;0.30;99.90
22008;DHT22;11168;56.976;24.168;2024-03-08T11:24:50;0.30;99.90
22008;DHT22;11168;56.976;24.168;2024-03-08T11:27:17;0.20;99.90
22008;DHT22;11168;56.976;24.168;2024-03-08T11:29:44;0.30;99.90
22008;DHT22;11168;56.976;24.168;2024-03-08T11:32:17;0.30;99.90
22008;DHT22;11168;56.976;24.168;2024-03-08T11:34:49;0.40;99.90
22008;DHT22;11168;56.976;24.168;2024-03-08T11:37:18;0.40;99.90
22008;DHT22;11168;56.976;24.168;2024-03-08T11:39:52;0.50;99.90
22008;DHT22;11168;56.976;24.168;2024-03-08T11:42:19;0.50;99.90
22008;DHT22;11168;56.976;24.168;2024-03-08T11:44:50;0.40;99.90
22008;DHT22;11168;56.976;24.168;2024-03-08T11:47:18;0.30;99.90
22008;DHT22;11168;56.976;24.168;2024-03-08T11:49:48;0.10;99.90
22008;DHT22;11168;56.976;24.168;2024-03-08T11:52:17;0.10;99.90
22008;DHT22;11168;56.976;24.168;2024-03-08T11:54:51;0.10;99.90
22008;DHT22;11168;56.976;24.168;2024-03-08T11:57:23;0.20;99.90
22008;DHT22;11168;56.976;24.168;2024-03-08T11:59:51;0.20;99.90
22008;DHT22;11168;56.976;24.168;2024-03-08T12:02:25;0.30;99.90
22008;DHT22;11168;56.976;24.168;2024-03-08T12:04:59;0.30;99.90
22008;DHT22;11168;56.976;24.168;2024-03-08T12:07:27;0.30;99.90
22008;DHT22;11168;56.976;24.168;2024-03-08T12:10:18;0.10;99.90
22008;DHT22;11168;56.976;24.168;2024-03-08T12:12:51;0.10;99.90
22008;DHT22;11168;56.976;24.168;2024-03-08T12:15:20;0.20;99.90
22008;DHT22;11168;56.976;24.168;2024-03-08T12:17:50;0.30;99.90
22008;DHT22;11168;56.976;24.168;2024-03-08T12:20:18;0.30;99.90
22008;DHT22;11168;56.976;24.168;2024-03-08T12:22:49;0.30;99.90
22008;DHT22;11168;56.976;24.168;2024-03-08T12:25:34;0.30;99.90
22008;DHT22;11168;56.976;24.168;2024-03-08T12:28:10;0.40;99.90
22008;DHT22;11168;56.976;24.168;2024-03-08T12:30:46;0.50;99.90
22008;DHT22;11168;56.976;24.168;2024-03-08T12:33:15;0.60;99.90
22008;DHT22;11168;56.976;24.168;2024-03-08T12:35:53;0.60;99.90
22008;DHT22;11168;56.976;24.168;2024-03-08T12:38:22;0.70;99.90
22008;DHT22;11168;56.976;24.168;2024-03-08T12:40:58;0.60;99.90
22008;DHT22;11168;56.976;24.168;2024-03-08T12:43:28;0.70;99.90
22008;DHT22;11168;56.976;24.168;2024-03-08T12:46:01;0.70;99.90
22008;DHT22;11168;56.976;24.168;2024-03-08T12:48:28;0.70;99.90
22008;DHT22;11168;56.976;24.168;2024-03-08T12:51:02;0.80;99.90
22008;DHT22;11168;56.976;24.168;2024-03-08T12:53:29;0.80;99.90
22008;DHT22;11168;56.976;24.168;2024-03-08T12:55:57;0.80;99.90
22008;DHT22;11168;56.976;24.168;2024-03-08T12:58:25;0.70;99.90
22008;DHT22;11168;56.976;24.168;2024-03-08T13:00:52;0.70;99.90
22008;DHT22;11168;56.976;24.168;2024-03-08T13:03:22;0.70;99.90
22008;DHT22;11168;56.976;24.168;2024-03-08T13:05:50;0.70;99.90
22008;DHT22;11168;56.976;24.168;2024-03-08T13:08:18;0.70;99.90
22008;DHT22;11168;56.976;24.168;2024-03-08T13:10:45;0.70;99.90
22008;DHT22;11168;56.976;24.168;2024-03-08T13:13:15;0.60;99.90
22008;DHT22;11168;56.976;24.168;2024-03-08T13:15:44;0.60;99.90
22008;DHT22;11168;56.976;24.168;2024-03-08T13:18:12;0.60;99.90
22008;DHT22;11168;56.976;24.168;2024-03-08T13:20:42;0.50;99.90
22008;DHT22;11168;56.976;24.168;2024-03-08T13:23:14;0.40;99.90
22008;DHT22;11168;56.976;24.168;2024-03-08T13:25:41;0.30;99.90
22008;DHT22;11168;56.976;24.168;2024-03-08T13:28:09;0.30;99.90
22008;DHT22;11168;56.976;24.168;2024-03-08T13:30:38;0.30;99.90
22008;DHT22;11168;56.976;24.168;2024-03-08T13:33:05;0.40;99.90
22008;DHT22;11168;56.976;24.168;2024-03-08T13:35:34;0.40;99.90
22008;DHT22;11168;56.976;24.168;2024-03-08T13:38:03;0.40;99.90
22008;DHT22;11168;56.976;24.168;2024-03-08T13:40:32;0.30;99.90
22008;DHT22;11168;56.976;24.168;2024-03-08T13:42:59;0.30;99.90
22008;DHT22;11168;56.976;24.168;2024-03-08T13:45:31;0.30;99.90
22008;DHT22;11168;56.976;24.168;2024-03-08T13:48:03;0.30;99.90
22008;DHT22;11168;56.976;24.168;2024-03-08T13:50:49;0.30;99.90
22008;DHT22;11168;56.976;24.168;2024-03-08T13:53:17;0.20;99.90
22008;DHT22;11168;56.976;24.168;2024-03-08T13:55:44;0.20;99.90
22008;DHT22;11168;56.976;24.168;2024-03-08T13:58:13;0.20;99.90
22008;DHT22;11168;56.976;24.168;2024-03-08T14:00:40;0.20;99.90
22008;DHT22;11168;56.976;24.168;2024-03-08T14:03:11;0.20;99.90
22008;DHT22;11168;56.976;24.168;2024-03-08T14:05:42;0.20;99.90
22008;DHT22;11168;56.976;24.168;2024-03-08T14:08:09;0.00;99.90
22008;DHT22;11168;56.976;24.168;2024-03-08T14:10:39;0.00;99.90
22008;DHT22;11168;56.976;24.168;2024-03-08T14:13:06;0.00;99.90
22008;DHT22;11168;56.976;24.168;2024-03-08T14:15:34;-0.10;99.90
22008;DHT22;11168;56.976;24.168;2024-03-08T14:18:03;-0.10;99.90
22008;DHT22;11168;56.976;24.168;2024-03-08T14:20:34;0.00;99.90
22008;DHT22;11168;56.976;24.168;2024-03-08T14:23:01;0.00;99.90
22008;DHT22;11168;56.976;24.168;2024-03-08T14:25:28;-0.10;99.90
22008;DHT22;11168;56.976;24.168;2024-03-08T14:27:56;0.00;99.90
22008;DHT22;11168;56.976;24.168;2024-03-08T14:30:36;-0.10;99.90
22008;DHT22;11168;56.976;24.168;2024-03-08T14:33:05;-0.10;99.90
22008;DHT22;11168;56.976;24.168;2024-03-08T14:35:40;0.00;99.90
22008;DHT22;11168;56.976;24.168;2024-03-08T14:38:07;0.00;99.90
22008;DHT22;11168;56.976;24.168;2024-03-08T14:40:39;-0.10;99.90
22008;DHT22;11168;56.976;24.168;2024-03-08T14:43:13;-0.10;99.90
22008;DHT22;11168;56.976;24.168;2024-03-08T14:45:42;-0.10;99.90
22008;DHT22;11168;56.976;24.168;2024-03-08T14:48:09;-0.30;99.90
22008;DHT22;11168;56.976;24.168;2024-03-08T14:50:38;-0.30;99.90
22008;DHT22;11168;56.976;24.168;2024-03-08T14:53:07;-0.30;99.90
22008;DHT22;11168;56.976;24.168;2024-03-08T14:55:34;-0.40;99.90
22008;DHT22;11168;56.976;24.168;2024-03-08T14:58:02;-0.40;99.90
22008;DHT22;11168;56.976;24.168;2024-03-08T15:00:33;-0.50;99.90
22008;DHT22;11168;56.976;24.168;2024-03-08T15:03:01;-0.40;99.90
22008;DHT22;11168;56.976;24.168;2024-03-08T15:05:29;-0.40;99.90
22008;DHT22;11168;56.976;24.168;2024-03-08T15:07:59;-0.40;99.90
22008;DHT22;11168;56.976;24.168;2024-03-08T15:10:38;-0.40;99.90
22008;DHT22;11168;56.976;24.168;2024-03-08T15:13:10;-0.50;99.90
22008;DHT22;11168;56.976;24.168;2024-03-08T15:15:42;-0.50;99.90
22008;DHT22;11168;56.976;24.168;2024-03-08T15:18:12;-0.60;99.90
22008;DHT22;11168;56.976;24.168;2024-03-08T15:20:39;-0.60;99.90
22008;DHT22;11168;56.976;24.168;2024-03-08T15:23:06;-0.70;99.90
22008;DHT22;11168;56.976;24.168;2024-03-08T15:25:36;-0.70;99.90
22008;DHT22;11168;56.976;24.168;2024-03-08T15:28:05;-0.70;99.90
22008;DHT22;11168;56.976;24.168;2024-03-08T15:30:40;-0.70;99.90
22008;DHT22;11168;56.976;24.168;2024-03-08T15:33:09;-0.70;99.90
22008;DHT22;11168;56.976;24.168;2024-03-08T15:35:39;-0.70;99.90
22008;DHT22;11168;56.976;24.168;2024-03-08T15:38:06;-0.70;99.90
22008;DHT22;11168;56.976;24.168;2024-03-08T15:40:38;-0.60;99.90